sensor_id;sensor_type;location;lat;lon;timestamp;P1;durP1;ratioP1;P2;durP2;ratioP2
2305;SDS011;1161;51.922;8.896;2023-03-12T00:01:12;6.72;;;4.25;;
2305;SDS011;1161;51.922;8.896;2023-03-12T00:03:40;9.52;;;5.75;;
2305;SDS011;1161;51.922;8.896;2023-03-12T00:06:07;9.18;;;4.32;;
2305;SDS011;1161;51.922;8.896;2023-03-12T00:08:34;6.85;;;4.93;;
2305;SDS011;1161;51.922;8.896;2023-03-12T00:11:04;9.68;;;4.57;;
2305;SDS011;1161;51.922;8.896;2023-03-12T00:13:31;7.13;;;4.25;;
2305;SDS011;1161;51.922;8.896;2023-03-12T00:16:03;5.35;;;4.53;;
2305;SDS011;1161;51.922;8.896;2023-03-12T00:18:33;3.95;;;3.55;;
2305;SDS011;1161;51.922;8.896;2023-03-12T00:20:59;4.70;;;4.30;;
2305;SDS011;1161;51.922;8.896;2023-03-12T00:23:26;9.80;;;4.53;;
2305;SDS011;1161;51.922;8.896;2023-03-12T00:25:57;13.77;;;4.00;;
2305;SDS011;1161;51.922;8.896;2023-03-12T00:28:25;7.35;;;4.55;;
2305;SDS011;1161;51.922;8.896;2023-03-12T00:30:51;4.50;;;4.03;;
2305;SDS011;1161;51.922;8.896;2023-03-12T00:33:19;11.35;;;5.38;;
2305;SDS011;1161;51.922;8.896;2023-03-12T00:35:46;6.30;;;4.37;;
2305;SDS011;1161;51.922;8.896;2023-03-12T00:38:12;7.50;;;4.97;;
2305;SDS011;1161;51.922;8.896;2023-03-12T00:40:39;5.80;;;4.93;;
2305;SDS011;1161;51.922;8.896;2023-03-12T00:43:05;9.95;;;4.13;;
2305;SDS011;1161;51.922;8.896;2023-03-12T00:45:33;10.95;;;3.85;;
2305;SDS011;1161;51.922;8.896;2023-03-12T00:47:59;5.18;;;4.68;;
2305;SDS011;1161;51.922;8.896;2023-03-12T00:50:27;11.90;;;4.32;;
2305;SDS011;1161;51.922;8.896;2023-03-12T00:52:54;4.07;;;3.78;;
2305;SDS011;1161;51.922;8.896;2023-03-12T00:55:20;9.65;;;4.63;;
2305;SDS011;1161;51.922;8.896;2023-03-12T00:57:47;10.83;;;5.07;;
2305;SDS011;1161;51.922;8.896;2023-03-12T01:00:14;7.45;;;5.13;;
2305;SDS011;1161;51.922;8.896;2023-03-12T01:02:41;6.68;;;5.22;;
2305;SDS011;1161;51.922;8.896;2023-03-12T01:05:09;5.10;;;3.95;;
2305;SDS011;1161;51.922;8.896;2023-03-12T01:07:41;6.50;;;4.93;;
2305;SDS011;1161;51.922;8.896;2023-03-12T01:10:08;8.65;;;6.15;;
2305;SDS011;1161;51.922;8.896;2023-03-12T01:12:38;10.30;;;4.88;;
2305;SDS011;1161;51.922;8.896;2023-03-12T01:15:05;6.85;;;4.88;;
2305;SDS011;1161;51.922;8.896;2023-03-12T01:17:32;5.82;;;5.28;;
2305;SDS011;1161;51.922;8.896;2023-03-12T01:19:58;6.93;;;6.10;;
2305;SDS011;1161;51.922;8.896;2023-03-12T01:22:25;9.95;;;6.40;;
2305;SDS011;1161;51.922;8.896;2023-03-12T01:24:53;8.23;;;5.63;;
2305;SDS011;1161;51.922;8.896;2023-03-12T01:27:20;9.90;;;5.90;;
2305;SDS011;1161;51.922;8.896;2023-03-12T01:29:47;5.35;;;4.72;;
2305;SDS011;1161;51.922;8.896;2023-03-12T01:32:13;9.73;;;6.32;;
2305;SDS011;1161;51.922;8.896;2023-03-12T01:34:41;13.65;;;5.45;;
2305;SDS011;1161;51.922;8.896;2023-03-12T01:37:08;7.32;;;6.57;;
2305;SDS011;1161;51.922;8.896;2023-03-12T01:39:34;11.93;;;5.60;;
2305;SDS011;1161;51.922;8.896;2023-03-12T01:42:03;12.77;;;5.05;;
2305;SDS011;1161;51.922;8.896;2023-03-12T01:44:29;9.82;;;5.13;;
2305;SDS011;1161;51.922;8.896;2023-03-12T01:46:56;9.00;;;6.50;;
2305;SDS011;1161;51.922;8.896;2023-03-12T01:49:23;19.65;;;7.72;;
2305;SDS011;1161;51.922;8.896;2023-03-12T01:51:51;14.05;;;5.65;;
2305;SDS011;1161;51.922;8.896;2023-03-12T01:54:22;10.98;;;6.43;;
2305;SDS011;1161;51.922;8.896;2023-03-12T01:56:50;12.63;;;6.50;;
2305;SDS011;1161;51.922;8.896;2023-03-12T01:59:19;5.90;;;4.68;;
2305;SDS011;1161;51.922;8.896;2023-03-12T02:01:48;6.68;;;5.28;;
2305;SDS011;1161;51.922;8.896;2023-03-12T02:04:16;12.43;;;6.53;;
2305;SDS011;1161;51.922;8.896;2023-03-12T02:06:45;14.55;;;6.10;;
2305;SDS011;1161;51.922;8.896;2023-03-12T02:09:14;13.15;;;6.03;;
2305;SDS011;1161;51.922;8.896;2023-03-12T02:11:44;11.77;;;7.32;;
2305;SDS011;1161;51.922;8.896;2023-03-12T02:14:11;6.78;;;6.13;;
2305;SDS011;1161;51.922;8.896;2023-03-12T02:16:39;7.50;;;6.25;;
2305;SDS011;1161;51.922;8.896;2023-03-12T02:19:07;6.97;;;6.18;;
2305;SDS011;1161;51.922;8.896;2023-03-12T02:21:38;7.03;;;5.53;;
2305;SDS011;1161;51.922;8.896;2023-03-12T02:24:06;20.73;;;7.00;;
2305;SDS011;1161;51.922;8.896;2023-03-12T02:26:39;7.88;;;5.55;;
2305;SDS011;1161;51.922;8.896;2023-03-12T02:29:06;14.00;;;5.85;;
2305;SDS011;1161;51.922;8.896;2023-03-12T02:31:36;6.10;;;5.13;;
2305;SDS011;1161;51.922;8.896;2023-03-12T02:34:05;12.07;;;7.30;;
2305;SDS011;1161;51.922;8.896;2023-03-12T02:36:32;6.95;;;4.72;;
2305;SDS011;1161;51.922;8.896;2023-03-12T02:38:59;7.15;;;6.07;;
2305;SDS011;1161;51.922;8.896;2023-03-12T02:41:26;9.32;;;6.00;;
2305;SDS011;1161;51.922;8.896;2023-03-12T02:43:59;10.75;;;6.85;;
2305;SDS011;1161;51.922;8.896;2023-03-12T02:46:27;11.77;;;7.03;;
2305;SDS011;1161;51.922;8.896;2023-03-12T02:48:55;15.82;;;6.57;;
2305;SDS011;1161;51.922;8.896;2023-03-12T02:51:22;11.90;;;6.22;;
2305;SDS011;1161;51.922;8.896;2023-03-12T02:53:48;7.95;;;6.65;;
2305;SDS011;1161;51.922;8.896;2023-03-12T02:56:19;7.30;;;5.45;;
2305;SDS011;1161;51.922;8.896;2023-03-12T02:58:47;14.27;;;7.35;;
2305;SDS011;1161;51.922;8.896;2023-03-12T03:01:15;20.98;;;7.43;;
2305;SDS011;1161;51.922;8.896;2023-03-12T03:03:43;9.57;;;6.55;;
2305;SDS011;1161;51.922;8.896;2023-03-12T03:06:09;10.15;;;6.30;;
2305;SDS011;1161;51.922;8.896;2023-03-12T03:08:36;11.23;;;7.03;;
2305;SDS011;1161;51.922;8.896;2023-03-12T03:11:03;7.95;;;6.45;;
2305;SDS011;1161;51.922;8.896;2023-03-12T03:13:30;8.55;;;6.30;;
2305;SDS011;1161;51.922;8.896;2023-03-12T03:15:57;12.95;;;6.25;;
2305;SDS011;1161;51.922;8.896;2023-03-12T03:18:27;10.00;;;6.53;;
2305;SDS011;1161;51.922;8.896;2023-03-12T03:20:54;9.98;;;6.32;;
2305;SDS011;1161;51.922;8.896;2023-03-12T03:23:21;6.40;;;5.82;;
2305;SDS011;1161;51.922;8.896;2023-03-12T03:25:48;9.63;;;5.80;;
2305;SDS011;1161;51.922;8.896;2023-03-12T03:28:17;6.70;;;5.70;;
2305;SDS011;1161;51.922;8.896;2023-03-12T03:30:43;9.27;;;6.18;;
2305;SDS011;1161;51.922;8.896;2023-03-12T03:33:10;7.40;;;6.13;;
2305;SDS011;1161;51.922;8.896;2023-03-12T03:35:38;6.95;;;5.78;;
2305;SDS011;1161;51.922;8.896;2023-03-12T03:38:05;7.32;;;5.38;;
2305;SDS011;1161;51.922;8.896;2023-03-12T03:40:33;6.88;;;6.38;;
2305;SDS011;1161;51.922;8.896;2023-03-12T03:43:01;7.45;;;6.70;;
2305;SDS011;1161;51.922;8.896;2023-03-12T03:45:28;16.85;;;7.00;;
2305;SDS011;1161;51.922;8.896;2023-03-12T03:47:55;12.45;;;5.90;;
2305;SDS011;1161;51.922;8.896;2023-03-12T03:50:22;15.70;;;7.80;;
2305;SDS011;1161;51.922;8.896;2023-03-12T03:52:50;9.07;;;7.07;;
2305;SDS011;1161;51.922;8.896;2023-03-12T03:55:16;7.97;;;6.70;;
2305;SDS011;1161;51.922;8.896;2023-03-12T03:57:43;17.95;;;6.72;;
2305;SDS011;1161;51.922;8.896;2023-03-12T04:00:11;8.73;;;6.95;;
2305;SDS011;1161;51.922;8.896;2023-03-12T04:02:42;12.10;;;7.00;;
2305;SDS011;1161;51.922;8.896;2023-03-12T04:05:10;18.75;;;7.20;;
2305;SDS011;1161;51.922;8.896;2023-03-12T04:07:38;7.50;;;6.80;;
2305;SDS011;1161;51.922;8.896;2023-03-12T04:10:06;10.13;;;7.75;;
2305;SDS011;1161;51.922;8.896;2023-03-12T04:12:34;7.38;;;6.63;;
2305;SDS011;1161;51.922;8.896;2023-03-12T04:15:00;12.98;;;7.00;;
2305;SDS011;1161;51.922;8.896;2023-03-12T04:17:27;8.52;;;6.47;;
2305;SDS011;1161;51.922;8.896;2023-03-12T04:19:54;15.32;;;7.75;;
2305;SDS011;1161;51.922;8.896;2023-03-12T04:22:21;7.55;;;6.45;;
2305;SDS011;1161;51.922;8.896;2023-03-12T04:24:48;11.05;;;6.28;;
2305;SDS011;1161;51.922;8.896;2023-03-12T04:27:17;10.50;;;8.40;;
2305;SDS011;1161;51.922;8.896;2023-03-12T04:29:45;13.32;;;7.53;;
2305;SDS011;1161;51.922;8.896;2023-03-12T04:32:11;39.17;;;8.85;;
2305;SDS011;1161;51.922;8.896;2023-03-12T04:34:38;16.10;;;8.68;;
2305;SDS011;1161;51.922;8.896;2023-03-12T04:37:05;19.60;;;9.60;;
2305;SDS011;1161;51.922;8.896;2023-03-12T04:39:33;10.15;;;7.50;;
2305;SDS011;1161;51.922;8.896;2023-03-12T04:42:01;15.57;;;8.43;;
2305;SDS011;1161;51.922;8.896;2023-03-12T04:44:30;17.15;;;8.90;;
2305;SDS011;1161;51.922;8.896;2023-03-12T04:46:59;14.88;;;9.93;;
2305;SDS011;1161;51.922;8.896;2023-03-12T04:49:26;31.70;;;10.35;;
2305;SDS011;1161;51.922;8.896;2023-03-12T04:51:53;12.32;;;9.40;;
2305;SDS011;1161;51.922;8.896;2023-03-12T04:54:21;24.27;;;11.18;;
2305;SDS011;1161;51.922;8.896;2023-03-12T04:56:48;18.35;;;9.52;;
2305;SDS011;1161;51.922;8.896;2023-03-12T04:59:17;11.48;;;10.35;;
2305;SDS011;1161;51.922;8.896;2023-03-12T05:01:46;14.55;;;11.75;;
2305;SDS011;1161;51.922;8.896;2023-03-12T05:04:13;16.17;;;10.45;;
2305;SDS011;1161;51.922;8.896;2023-03-12T05:06:40;16.75;;;11.93;;
2305;SDS011;1161;51.922;8.896;2023-03-12T05:09:07;16.02;;;11.82;;
2305;SDS011;1161;51.922;8.896;2023-03-12T05:11:35;26.08;;;14.07;;
2305;SDS011;1161;51.922;8.896;2023-03-12T05:14:03;19.67;;;12.60;;
2305;SDS011;1161;51.922;8.896;2023-03-12T05:16:29;23.30;;;13.50;;
2305;SDS011;1161;51.922;8.896;2023-03-12T05:18:57;24.98;;;13.52;;
2305;SDS011;1161;51.922;8.896;2023-03-12T05:21:26;18.55;;;13.60;;
2305;SDS011;1161;51.922;8.896;2023-03-12T05:23:57;32.55;;;14.60;;
2305;SDS011;1161;51.922;8.896;2023-03-12T05:26:26;30.23;;;17.90;;
2305;SDS011;1161;51.922;8.896;2023-03-12T05:28:56;24.25;;;17.33;;
2305;SDS011;1161;51.922;8.896;2023-03-12T05:31:23;28.65;;;15.50;;
2305;SDS011;1161;51.922;8.896;2023-03-12T05:33:50;34.30;;;19.48;;
2305;SDS011;1161;51.922;8.896;2023-03-12T05:36:19;31.00;;;18.20;;
2305;SDS011;1161;51.922;8.896;2023-03-12T05:38:46;20.52;;;14.57;;
2305;SDS011;1161;51.922;8.896;2023-03-12T05:41:16;43.17;;;21.13;;
2305;SDS011;1161;51.922;8.896;2023-03-12T05:43:45;41.20;;;20.25;;
2305;SDS011;1161;51.922;8.896;2023-03-12T05:46:12;39.00;;;19.92;;
2305;SDS011;1161;51.922;8.896;2023-03-12T05:48:39;47.47;;;19.70;;
2305;SDS011;1161;51.922;8.896;2023-03-12T05:51:08;27.45;;;17.50;;
2305;SDS011;1161;51.922;8.896;2023-03-12T05:53:38;26.67;;;17.80;;
2305;SDS011;1161;51.922;8.896;2023-03-12T05:56:06;36.10;;;20.38;;
2305;SDS011;1161;51.922;8.896;2023-03-12T05:58:34;41.10;;;20.92;;
2305;SDS011;1161;51.922;8.896;2023-03-12T06:01:02;37.70;;;20.48;;
2305;SDS011;1161;51.922;8.896;2023-03-12T06:03:30;43.95;;;23.00;;
2305;SDS011;1161;51.922;8.896;2023-03-12T06:05:57;26.98;;;17.08;;
2305;SDS011;1161;51.922;8.896;2023-03-12T06:08:23;36.47;;;19.20;;
2305;SDS011;1161;51.922;8.896;2023-03-12T06:10:52;40.15;;;20.65;;
2305;SDS011;1161;51.922;8.896;2023-03-12T06:13:21;31.27;;;19.30;;
2305;SDS011;1161;51.922;8.896;2023-03-12T06:15:49;30.70;;;15.63;;
2305;SDS011;1161;51.922;8.896;2023-03-12T06:18:16;34.45;;;17.10;;
2305;SDS011;1161;51.922;8.896;2023-03-12T06:20:45;29.73;;;18.13;;
2305;SDS011;1161;51.922;8.896;2023-03-12T06:23:12;32.17;;;19.35;;
2305;SDS011;1161;51.922;8.896;2023-03-12T06:25:39;37.70;;;22.08;;
2305;SDS011;1161;51.922;8.896;2023-03-12T06:28:12;39.53;;;22.30;;
2305;SDS011;1161;51.922;8.896;2023-03-12T06:30:40;34.40;;;21.17;;
2305;SDS011;1161;51.922;8.896;2023-03-12T06:33:11;40.45;;;20.63;;
2305;SDS011;1161;51.922;8.896;2023-03-12T06:35:38;43.13;;;23.42;;
2305;SDS011;1161;51.922;8.896;2023-03-12T06:38:06;49.08;;;24.83;;
2305;SDS011;1161;51.922;8.896;2023-03-12T06:40:33;43.63;;;23.38;;
2305;SDS011;1161;51.922;8.896;2023-03-12T06:43:00;46.25;;;26.38;;
2305;SDS011;1161;51.922;8.896;2023-03-12T06:45:30;41.70;;;26.27;;
2305;SDS011;1161;51.922;8.896;2023-03-12T06:47:57;43.33;;;26.50;;
2305;SDS011;1161;51.922;8.896;2023-03-12T06:50:24;58.92;;;28.45;;
2305;SDS011;1161;51.922;8.896;2023-03-12T06:52:51;50.83;;;28.15;;
2305;SDS011;1161;51.922;8.896;2023-03-12T06:55:18;48.78;;;27.35;;
2305;SDS011;1161;51.922;8.896;2023-03-12T06:57:46;41.97;;;24.55;;
2305;SDS011;1161;51.922;8.896;2023-03-12T07:00:14;37.28;;;22.40;;
2305;SDS011;1161;51.922;8.896;2023-03-12T07:02:42;41.33;;;25.20;;
2305;SDS011;1161;51.922;8.896;2023-03-12T07:05:09;43.92;;;23.23;;
2305;SDS011;1161;51.922;8.896;2023-03-12T07:07:36;39.03;;;24.55;;
2305;SDS011;1161;51.922;8.896;2023-03-12T07:10:04;40.47;;;23.98;;
2305;SDS011;1161;51.922;8.896;2023-03-12T07:12:31;48.63;;;28.65;;
2305;SDS011;1161;51.922;8.896;2023-03-12T07:15:01;50.60;;;31.90;;
2305;SDS011;1161;51.922;8.896;2023-03-12T07:17:28;58.50;;;34.92;;
2305;SDS011;1161;51.922;8.896;2023-03-12T07:19:56;52.85;;;32.38;;
2305;SDS011;1161;51.922;8.896;2023-03-12T07:22:23;67.70;;;34.78;;
2305;SDS011;1161;51.922;8.896;2023-03-12T07:24:50;69.88;;;32.72;;
2305;SDS011;1161;51.922;8.896;2023-03-12T07:27:18;57.33;;;33.72;;
2305;SDS011;1161;51.922;8.896;2023-03-12T07:29:45;58.63;;;33.30;;
2305;SDS011;1161;51.922;8.896;2023-03-12T07:32:13;62.72;;;31.63;;
2305;SDS011;1161;51.922;8.896;2023-03-12T07:34:40;52.15;;;29.35;;
2305;SDS011;1161;51.922;8.896;2023-03-12T07:37:09;46.80;;;28.70;;
2305;SDS011;1161;51.922;8.896;2023-03-12T07:39:37;45.40;;;26.13;;
2305;SDS011;1161;51.922;8.896;2023-03-12T07:42:04;48.03;;;26.27;;
2305;SDS011;1161;51.922;8.896;2023-03-12T07:44:34;44.97;;;26.47;;
2305;SDS011;1161;51.922;8.896;2023-03-12T07:47:01;45.10;;;25.93;;
2305;SDS011;1161;51.922;8.896;2023-03-12T07:49:28;39.75;;;22.85;;
2305;SDS011;1161;51.922;8.896;2023-03-12T07:51:54;27.98;;;19.42;;
2305;SDS011;1161;51.922;8.896;2023-03-12T07:54:22;29.35;;;20.48;;
2305;SDS011;1161;51.922;8.896;2023-03-12T07:56:54;39.83;;;21.27;;
2305;SDS011;1161;51.922;8.896;2023-03-12T07:59:21;42.73;;;23.57;;
2305;SDS011;1161;51.922;8.896;2023-03-12T08:01:48;39.93;;;22.77;;
2305;SDS011;1161;51.922;8.896;2023-03-12T08:04:14;37.30;;;23.38;;
2305;SDS011;1161;51.922;8.896;2023-03-12T08:06:41;43.97;;;23.55;;
2305;SDS011;1161;51.922;8.896;2023-03-12T08:09:08;35.10;;;21.90;;
2305;SDS011;1161;51.922;8.896;2023-03-12T08:11:36;34.57;;;20.83;;
2305;SDS011;1161;51.922;8.896;2023-03-12T08:14:03;38.17;;;20.80;;
2305;SDS011;1161;51.922;8.896;2023-03-12T08:16:30;41.87;;;25.10;;
2305;SDS011;1161;51.922;8.896;2023-03-12T08:18:57;47.33;;;25.00;;
2305;SDS011;1161;51.922;8.896;2023-03-12T08:21:23;37.60;;;22.43;;
2305;SDS011;1161;51.922;8.896;2023-03-12T08:23:50;39.63;;;21.67;;
2305;SDS011;1161;51.922;8.896;2023-03-12T08:26:17;37.50;;;22.20;;
2305;SDS011;1161;51.922;8.896;2023-03-12T08:28:45;32.80;;;19.90;;
2305;SDS011;1161;51.922;8.896;2023-03-12T08:31:12;35.73;;;20.07;;
2305;SDS011;1161;51.922;8.896;2023-03-12T08:33:38;26.63;;;17.10;;
2305;SDS011;1161;51.922;8.896;2023-03-12T08:36:07;20.07;;;15.40;;
2305;SDS011;1161;51.922;8.896;2023-03-12T08:38:34;20.07;;;12.30;;
2305;SDS011;1161;51.922;8.896;2023-03-12T08:41:01;10.90;;;8.60;;
2305;SDS011;1161;51.922;8.896;2023-03-12T08:43:27;9.67;;;7.93;;
2305;SDS011;1161;51.922;8.896;2023-03-12T08:45:59;8.57;;;7.70;;
2305;SDS011;1161;51.922;8.896;2023-03-12T08:48:26;12.00;;;7.30;;
2305;SDS011;1161;51.922;8.896;2023-03-12T08:50:54;9.83;;;5.27;;
2305;SDS011;1161;51.922;8.896;2023-03-12T08:53:21;13.30;;;7.30;;
2305;SDS011;1161;51.922;8.896;2023-03-12T08:55:50;9.70;;;6.63;;
2305;SDS011;1161;51.922;8.896;2023-03-12T08:58:17;10.30;;;5.20;;
2305;SDS011;1161;51.922;8.896;2023-03-12T09:00:44;14.07;;;6.50;;
2305;SDS011;1161;51.922;8.896;2023-03-12T09:03:12;8.47;;;7.20;;
2305;SDS011;1161;51.922;8.896;2023-03-12T09:05:41;11.63;;;5.47;;
2305;SDS011;1161;51.922;8.896;2023-03-12T09:08:08;8.03;;;5.93;;
2305;SDS011;1161;51.922;8.896;2023-03-12T09:10:35;6.93;;;6.33;;
2305;SDS011;1161;51.922;8.896;2023-03-12T09:13:02;10.10;;;6.10;;
2305;SDS011;1161;51.922;8.896;2023-03-12T09:15:30;6.47;;;4.93;;
2305;SDS011;1161;51.922;8.896;2023-03-12T09:17:57;9.43;;;6.63;;
2305;SDS011;1161;51.922;8.896;2023-03-12T09:20:25;9.33;;;7.40;;
2305;SDS011;1161;51.922;8.896;2023-03-12T09:22:52;9.37;;;7.37;;
2305;SDS011;1161;51.922;8.896;2023-03-12T09:25:18;6.97;;;5.93;;
2305;SDS011;1161;51.922;8.896;2023-03-12T09:27:47;12.43;;;6.60;;
2305;SDS011;1161;51.922;8.896;2023-03-12T09:30:15;15.50;;;5.93;;
2305;SDS011;1161;51.922;8.896;2023-03-12T09:32:42;14.83;;;7.23;;
2305;SDS011;1161;51.922;8.896;2023-03-12T09:35:10;9.77;;;6.33;;
2305;SDS011;1161;51.922;8.896;2023-03-12T09:37:39;11.63;;;6.40;;
2305;SDS011;1161;51.922;8.896;2023-03-12T09:40:06;33.43;;;13.73;;
2305;SDS011;1161;51.922;8.896;2023-03-12T09:42:39;15.03;;;11.13;;
2305;SDS011;1161;51.922;8.896;2023-03-12T09:45:07;12.30;;;9.57;;
2305;SDS011;1161;51.922;8.896;2023-03-12T09:47:42;20.33;;;9.40;;
2305;SDS011;1161;51.922;8.896;2023-03-12T09:50:16;11.67;;;9.47;;
2305;SDS011;1161;51.922;8.896;2023-03-12T09:52:49;19.63;;;13.10;;
2305;SDS011;1161;51.922;8.896;2023-03-12T09:55:18;35.03;;;20.73;;
2305;SDS011;1161;51.922;8.896;2023-03-12T09:57:47;39.73;;;24.43;;
2305;SDS011;1161;51.922;8.896;2023-03-12T10:00:16;27.30;;;19.07;;
2305;SDS011;1161;51.922;8.896;2023-03-12T10:02:53;35.30;;;19.93;;
2305;SDS011;1161;51.922;8.896;2023-03-12T10:05:33;35.30;;;18.20;;
2305;SDS011;1161;51.922;8.896;2023-03-12T10:08:03;36.80;;;20.40;;
2305;SDS011;1161;51.922;8.896;2023-03-12T10:10:38;24.73;;;15.27;;
2305;SDS011;1161;51.922;8.896;2023-03-12T10:13:16;25.43;;;14.50;;
2305;SDS011;1161;51.922;8.896;2023-03-12T10:15:54;23.47;;;13.60;;
2305;SDS011;1161;51.922;8.896;2023-03-12T10:18:31;22.40;;;14.40;;
2305;SDS011;1161;51.922;8.896;2023-03-12T10:21:12;22.53;;;13.57;;
2305;SDS011;1161;51.922;8.896;2023-03-12T10:23:50;25.07;;;13.87;;
2305;SDS011;1161;51.922;8.896;2023-03-12T10:26:33;26.80;;;13.77;;
2305;SDS011;1161;51.922;8.896;2023-03-12T10:29:03;17.70;;;13.23;;
2305;SDS011;1161;51.922;8.896;2023-03-12T10:31:36;20.50;;;14.20;;
2305;SDS011;1161;51.922;8.896;2023-03-12T10:34:12;31.07;;;17.00;;
2305;SDS011;1161;51.922;8.896;2023-03-12T10:36:41;28.20;;;16.80;;
2305;SDS011;1161;51.922;8.896;2023-03-12T10:39:12;45.43;;;23.30;;
2305;SDS011;1161;51.922;8.896;2023-03-12T10:41:40;40.47;;;25.13;;
2305;SDS011;1161;51.922;8.896;2023-03-12T10:44:08;55.27;;;25.90;;
2305;SDS011;1161;51.922;8.896;2023-03-12T10:46:44;49.87;;;26.90;;
2305;SDS011;1161;51.922;8.896;2023-03-12T10:49:28;55.37;;;31.93;;
2305;SDS011;1161;51.922;8.896;2023-03-12T10:52:00;59.73;;;31.00;;
2305;SDS011;1161;51.922;8.896;2023-03-12T10:54:32;45.20;;;25.47;;
2305;SDS011;1161;51.922;8.896;2023-03-12T10:57:00;53.60;;;25.30;;
2305;SDS011;1161;51.922;8.896;2023-03-12T10:59:28;68.07;;;24.50;;
2305;SDS011;1161;51.922;8.896;2023-03-12T11:01:56;53.33;;;27.10;;
2305;SDS011;1161;51.922;8.896;2023-03-12T11:04:24;33.90;;;22.43;;
2305;SDS011;1161;51.922;8.896;2023-03-12T11:07:02;38.10;;;21.63;;
2305;SDS011;1161;51.922;8.896;2023-03-12T11:09:43;39.37;;;22.97;;
2305;SDS011;1161;51.922;8.896;2023-03-12T11:12:21;38.83;;;21.10;;
2305;SDS011;1161;51.922;8.896;2023-03-12T11:14:50;29.30;;;20.53;;
2305;SDS011;1161;51.922;8.896;2023-03-12T11:17:20;52.33;;;25.23;;
2305;SDS011;1161;51.922;8.896;2023-03-12T11:19:48;55.73;;;29.30;;
2305;SDS011;1161;51.922;8.896;2023-03-12T11:22:25;50.83;;;29.57;;
2305;SDS011;1161;51.922;8.896;2023-03-12T11:24:55;59.23;;;33.43;;
2305;SDS011;1161;51.922;8.896;2023-03-12T11:27:26;49.93;;;28.27;;
2305;SDS011;1161;51.922;8.896;2023-03-12T11:29:57;42.63;;;26.57;;
2305;SDS011;1161;51.922;8.896;2023-03-12T11:32:25;41.47;;;24.93;;
2305;SDS011;1161;51.922;8.896;2023-03-12T11:34:55;45.97;;;24.50;;
2305;SDS011;1161;51.922;8.896;2023-03-12T11:37:24;46.00;;;26.47;;
2305;SDS011;1161;51.922;8.896;2023-03-12T11:39:58;49.80;;;27.17;;
2305;SDS011;1161;51.922;8.896;2023-03-12T11:42:36;55.27;;;28.00;;
2305;SDS011;1161;51.922;8.896;2023-03-12T11:45:13;61.57;;;28.00;;
2305;SDS011;1161;51.922;8.896;2023-03-12T11:47:46;50.20;;;28.40;;
2305;SDS011;1161;51.922;8.896;2023-03-12T11:50:23;47.13;;;27.00;;
2305;SDS011;1161;51.922;8.896;2023-03-12T11:53:01;43.23;;;26.77;;
2305;SDS011;1161;51.922;8.896;2023-03-12T11:55:39;41.23;;;24.50;;
2305;SDS011;1161;51.922;8.896;2023-03-12T11:58:15;41.47;;;21.67;;
2305;SDS011;1161;51.922;8.896;2023-03-12T12:00:51;33.83;;;21.07;;
2305;SDS011;1161;51.922;8.896;2023-03-12T12:06:14;50.90;;;26.37;;
2305;SDS011;1161;51.922;8.896;2023-03-12T12:08:52;40.90;;;24.70;;
2305;SDS011;1161;51.922;8.896;2023-03-12T12:11:30;53.27;;;27.33;;
2305;SDS011;1161;51.922;8.896;2023-03-12T12:14:03;89.40;;;41.20;;
2305;SDS011;1161;51.922;8.896;2023-03-12T12:16:44;56.80;;;29.57;;
2305;SDS011;1161;51.922;8.896;2023-03-12T12:19:19;59.63;;;32.03;;
2305;SDS011;1161;51.922;8.896;2023-03-12T12:21:52;59.83;;;31.83;;
2305;SDS011;1161;51.922;8.896;2023-03-12T12:24:30;47.77;;;23.60;;
2305;SDS011;1161;51.922;8.896;2023-03-12T12:27:06;40.60;;;23.40;;
2305;SDS011;1161;51.922;8.896;2023-03-12T12:29:40;52.27;;;29.40;;
2305;SDS011;1161;51.922;8.896;2023-03-12T12:32:18;24.90;;;14.70;;
2305;SDS011;1161;51.922;8.896;2023-03-12T12:37:36;43.00;;;24.90;;
2305;SDS011;1161;51.922;8.896;2023-03-12T12:40:11;31.70;;;19.70;;
2305;SDS011;1161;51.922;8.896;2023-03-12T12:42:48;26.73;;;16.37;;
2305;SDS011;1161;51.922;8.896;2023-03-12T12:45:19;26.17;;;15.07;;
2305;SDS011;1161;51.922;8.896;2023-03-12T12:47:47;12.50;;;9.40;;
2305;SDS011;1161;51.922;8.896;2023-03-12T12:50:17;10.27;;;8.90;;
2305;SDS011;1161;51.922;8.896;2023-03-12T12:52:46;10.57;;;9.50;;
2305;SDS011;1161;51.922;8.896;2023-03-12T12:55:17;9.60;;;8.47;;
2305;SDS011;1161;51.922;8.896;2023-03-12T12:57:48;11.60;;;7.70;;
2305;SDS011;1161;51.922;8.896;2023-03-12T13:00:22;9.23;;;7.47;;
2305;SDS011;1161;51.922;8.896;2023-03-12T13:02:56;15.73;;;9.10;;
2305;SDS011;1161;51.922;8.896;2023-03-12T13:05:24;15.30;;;9.30;;
2305;SDS011;1161;51.922;8.896;2023-03-12T13:07:54;8.70;;;6.73;;
2305;SDS011;1161;51.922;8.896;2023-03-12T13:10:36;8.17;;;7.37;;
2305;SDS011;1161;51.922;8.896;2023-03-12T13:13:09;11.27;;;7.60;;
2305;SDS011;1161;51.922;8.896;2023-03-12T13:15:39;13.13;;;8.80;;
2305;SDS011;1161;51.922;8.896;2023-03-12T13:18:08;16.77;;;9.00;;
2305;SDS011;1161;51.922;8.896;2023-03-12T13:20:45;15.73;;;9.30;;
2305;SDS011;1161;51.922;8.896;2023-03-12T13:23:28;15.33;;;8.80;;
2305;SDS011;1161;51.922;8.896;2023-03-12T13:25:59;9.73;;;8.47;;
2305;SDS011;1161;51.922;8.896;2023-03-12T13:28:35;12.27;;;8.30;;
2305;SDS011;1161;51.922;8.896;2023-03-12T13:36:56;16.40;;;8.60;;
2305;SDS011;1161;51.922;8.896;2023-03-12T13:39:28;9.47;;;7.23;;
2305;SDS011;1161;51.922;8.896;2023-03-12T13:41:56;14.93;;;8.40;;
2305;SDS011;1161;51.922;8.896;2023-03-12T13:44:35;11.30;;;7.63;;
2305;SDS011;1161;51.922;8.896;2023-03-12T13:47:03;11.43;;;10.10;;
2305;SDS011;1161;51.922;8.896;2023-03-12T13:49:34;12.23;;;9.30;;
2305;SDS011;1161;51.922;8.896;2023-03-12T13:52:14;14.57;;;9.47;;
2305;SDS011;1161;51.922;8.896;2023-03-12T13:54:45;14.80;;;8.33;;
2305;SDS011;1161;51.922;8.896;2023-03-12T13:57:22;15.40;;;9.27;;
2305;SDS011;1161;51.922;8.896;2023-03-12T13:59:56;20.03;;;11.67;;
2305;SDS011;1161;51.922;8.896;2023-03-12T14:02:26;13.30;;;8.30;;
2305;SDS011;1161;51.922;8.896;2023-03-12T14:04:59;20.03;;;10.40;;
2305;SDS011;1161;51.922;8.896;2023-03-12T14:10:42;18.03;;;10.90;;
2305;SDS011;1161;51.922;8.896;2023-03-12T14:13:17;17.20;;;10.83;;
2305;SDS011;1161;51.922;8.896;2023-03-12T14:15:55;15.30;;;10.07;;
2305;SDS011;1161;51.922;8.896;2023-03-12T14:18:26;20.50;;;10.60;;
2305;SDS011;1161;51.922;8.896;2023-03-12T14:20:55;19.23;;;9.27;;
2305;SDS011;1161;51.922;8.896;2023-03-12T14:23:26;17.23;;;10.60;;
2305;SDS011;1161;51.922;8.896;2023-03-12T14:25:55;20.30;;;9.80;;
2305;SDS011;1161;51.922;8.896;2023-03-12T14:28:23;19.80;;;11.60;;
2305;SDS011;1161;51.922;8.896;2023-03-12T14:30:53;24.07;;;13.10;;
2305;SDS011;1161;51.922;8.896;2023-03-12T14:33:24;13.77;;;9.20;;
2305;SDS011;1161;51.922;8.896;2023-03-12T14:35:54;19.23;;;12.30;;
2305;SDS011;1161;51.922;8.896;2023-03-12T14:38:24;24.50;;;12.97;;
2305;SDS011;1161;51.922;8.896;2023-03-12T14:40:54;25.20;;;14.47;;
2305;SDS011;1161;51.922;8.896;2023-03-12T14:43:24;31.93;;;14.47;;
2305;SDS011;1161;51.922;8.896;2023-03-12T14:45:53;29.87;;;13.80;;
2305;SDS011;1161;51.922;8.896;2023-03-12T14:48:23;34.33;;;15.53;;
2305;SDS011;1161;51.922;8.896;2023-03-12T14:50:54;47.97;;;19.63;;
2305;SDS011;1161;51.922;8.896;2023-03-12T14:53:23;29.23;;;15.60;;
2305;SDS011;1161;51.922;8.896;2023-03-12T14:55:57;31.00;;;15.40;;
2305;SDS011;1161;51.922;8.896;2023-03-12T14:58:25;36.00;;;16.30;;
2305;SDS011;1161;51.922;8.896;2023-03-12T15:00:55;29.53;;;15.43;;
2305;SDS011;1161;51.922;8.896;2023-03-12T15:03:24;37.77;;;18.67;;
2305;SDS011;1161;51.922;8.896;2023-03-12T15:05:52;30.53;;;15.47;;
2305;SDS011;1161;51.922;8.896;2023-03-12T15:08:19;22.90;;;14.13;;
2305;SDS011;1161;51.922;8.896;2023-03-12T15:10:46;21.30;;;11.70;;
2305;SDS011;1161;51.922;8.896;2023-03-12T15:13:13;20.53;;;10.57;;
2305;SDS011;1161;51.922;8.896;2023-03-12T15:15:43;31.87;;;10.30;;
2305;SDS011;1161;51.922;8.896;2023-03-12T15:18:12;30.47;;;16.00;;
2305;SDS011;1161;51.922;8.896;2023-03-12T15:20:42;30.07;;;13.53;;
2305;SDS011;1161;51.922;8.896;2023-03-12T15:23:10;27.97;;;14.43;;
2305;SDS011;1161;51.922;8.896;2023-03-12T15:25:38;34.07;;;16.00;;